カシュガル空港の過去48時間の天気

カシュガル空港 (Kashi)

現在時刻: 2/27 22:54 CST (2/27 14:54 UTC) 以下の時間は現地時間です。

過去48時間のMETAR気象情報
時間 風向 風速(m/s) 視程 気温(℃) 湿度(%) 気圧(hPa) 天気現象
27 22:00 静穏 0 10km以上 8 25 1013
27 21:00 南東 2 10km以上 10 23 1013
27 20:00 静穏 0 10km以上 12 19 1013
27 19:00 不定 1 10km以上 13 18 1013
27 18:00 3 10km以上 13 18 1013
27 17:00 不定 1 10km以上 12 19 1014
27 16:00 不定 1 9000m 12 20 1015
27 15:00 2 6000m 11 22 1017
27 14:00 南西 1 8000m 10 25 1017
27 13:00 不定 1 5000m 9 25 1018 風塵
27 12:00 北西 3 6000m 8 25 1018
27 11:00 北西 4 6000m 6 28 1018
27 10:00 北西 5 10km以上 5 30 1018
27 09:00 北西 5 10km以上 5 30 1019
27 08:00 北西 4 10km以上 5 30 1019
27 07:00 北西 5 10km以上 5 30 1019
27 06:00 北西 5 10km以上 5 30 1020
27 05:00 北西 5 10km以上 5 33 1020
27 04:00 北西 6 10km以上 6 28 1021
ZWSH 271400Z AUTO 00000MPS 9999 // ////// 08/M11 Q1013
ZWSH 271300Z AUTO 13002MPS 9999 // ////// 10/M10 Q1013
ZWSH 271200Z AUTO 00000MPS 9999 // ////// 12/M11 Q1013
ZWSH 271100Z AUTO VRB01MPS 9999 // ////// 13/M11 Q1013
ZWSH 271000Z AUTO 18003MPS 150V230 9999 // ////// 13/M11 Q1013
ZWSH 270900Z AUTO VRB01MPS 9999 // ////// 12/M11 Q1014
ZWSH 270800Z AUTO VRB01MPS 9000 // ////// 12/M10 Q1015
ZWSH 270700Z AUTO 10002MPS 6000 // ////// 11/M10 Q1017
ZWSH 270600Z AUTO 23001MPS 8000 // ////// 10/M09 Q1017
ZWSH 270500Z VRB01MPS 5000 DU SCT040 09/M10 Q1018 NOSIG
ZWSH 270400Z 32003MPS 6000 SCT040 08/M11 Q1018 NOSIG
ZWSH 270300Z 31004MPS 6000 SCT040 06/M11 Q1018 NOSIG
ZWSH 270200Z 31005MPS 9999 SCT040 05/M11 Q1018 NOSIG
ZWSH 270100Z 31005MPS CAVOK 05/M11 Q1019 NOSIG
ZWSH 270000Z 31004MPS CAVOK 05/M11 Q1019 NOSIG
ZWSH 262300Z 31005MPS CAVOK 05/M11 Q1019 NOSIG
ZWSH 262200Z AUTO 31005MPS 9999 // ////// 05/M11 Q1020
ZWSH 262100Z AUTO 31005MPS 9999 // ////// 05/M10 Q1020
ZWSH 262000Z AUTO 31006MPS 9999 // ////// 06/M11 Q1021